createdAt,value
2016-12-30T00:00:50.723Z,0
2016-12-30T00:02:01.463Z,0
2016-12-30T00:03:11.020Z,0
2016-12-30T00:04:21.750Z,0
2016-12-30T00:05:31.701Z,0
2016-12-30T00:06:42.054Z,0
2016-12-30T00:07:52.056Z,0
2016-12-30T00:09:02.398Z,0
2016-12-30T00:10:12.743Z,0
2016-12-30T00:11:23.075Z,0
2016-12-30T00:12:33.432Z,0
2016-12-30T00:13:44.183Z,0
2016-12-30T00:14:54.922Z,0
2016-12-30T00:16:05.658Z,0
2016-12-30T00:17:15.626Z,0
2016-12-30T00:18:26.360Z,0
2016-12-30T00:19:36.699Z,0
2016-12-30T00:20:46.655Z,0
2016-12-30T00:21:57.010Z,0
2016-12-30T00:23:07.739Z,0
2016-12-30T00:24:18.084Z,0
2016-12-30T00:25:28.040Z,0
2016-12-30T00:26:38.400Z,0
2016-12-30T00:27:48.343Z,0
2016-12-30T00:28:58.671Z,0
2016-12-30T00:30:09.413Z,0
2016-12-30T00:31:20.154Z,0
2016-12-30T00:32:30.520Z,0
2016-12-30T00:33:41.257Z,0
2016-12-30T00:34:51.995Z,0
2016-12-30T00:36:02.337Z,0
2016-12-30T00:37:12.323Z,0
2016-12-30T00:38:23.059Z,0
2016-12-30T00:39:33.801Z,0
2016-12-30T00:40:44.557Z,0
2016-12-30T00:41:54.941Z,0
2016-12-30T00:43:05.278Z,0
2016-12-30T00:44:15.622Z,0
2016-12-30T00:45:25.959Z,0
2016-12-30T00:46:36.300Z,0
2016-12-30T00:47:46.648Z,0
2016-12-30T00:48:56.639Z,0
2016-12-30T00:50:07.377Z,0
2016-12-30T00:51:18.117Z,0
2016-12-30T00:52:28.859Z,0
2016-12-30T00:53:39.601Z,0
2016-12-30T00:54:49.947Z,0
2016-12-30T00:56:00.684Z,0
2016-12-30T00:57:11.426Z,0
2016-12-30T00:58:22.213Z,0
2016-12-30T00:59:32.955Z,0
2016-12-30T01:00:43.702Z,0
2016-12-30T01:01:54.038Z,0
2016-12-30T01:03:04.799Z,0
2016-12-30T01:04:15.536Z,0
2016-12-30T01:05:25.489Z,0
2016-12-30T01:06:36.227Z,0
2016-12-30T01:07:46.974Z,0
2016-12-30T01:08:57.305Z,0
2016-12-30T01:10:07.652Z,0
2016-12-30T01:11:17.617Z,0
2016-12-30T01:12:27.954Z,0
2016-12-30T01:13:38.696Z,0
2016-12-30T01:14:48.649Z,0
2016-12-30T01:15:58.598Z,0
2016-12-30T01:17:08.545Z,0
2016-12-30T01:18:18.921Z,0
2016-12-30T01:19:28.864Z,0
2016-12-30T01:20:38.801Z,0
2016-12-30T01:21:49.138Z,0
2016-12-30T01:22:59.870Z,0
2016-12-30T01:24:09.853Z,0
2016-12-30T01:25:20.203Z,0
2016-12-30T01:26:31.176Z,0
2016-12-30T01:27:41.517Z,0
2016-12-30T01:28:52.247Z,0
2016-12-30T01:30:02.983Z,0
2016-12-30T01:31:13.321Z,0
2016-12-30T01:32:24.053Z,0
2016-12-30T01:33:34.813Z,0
2016-12-30T01:34:45.165Z,0
2016-12-30T01:35:55.898Z,0
2016-12-30T01:37:06.244Z,0
2016-12-30T01:38:16.970Z,0
2016-12-30T01:39:26.922Z,0
2016-12-30T01:40:37.650Z,0
2016-12-30T01:41:48.011Z,0
2016-12-30T01:42:57.954Z,0
2016-12-30T01:44:08.309Z,0
2016-12-30T01:45:18.647Z,0
2016-12-30T01:46:29.379Z,0
2016-12-30T01:47:39.715Z,0
2016-12-30T01:48:50.057Z,0
2016-12-30T01:50:00.413Z,0
2016-12-30T01:51:10.759Z,0
2016-12-30T01:52:21.490Z,0
2016-12-30T01:53:32.240Z,0
2016-12-30T01:54:42.580Z,0
2016-12-30T01:55:53.325Z,0
2016-12-30T01:57:03.273Z,0
2016-12-30T01:58:14.029Z,0
2016-12-30T01:59:24.362Z,0
2016-12-30T02:00:34.723Z,0
2016-12-30T02:01:45.064Z,0
2016-12-30T02:02:55.818Z,0
2016-12-30T02:04:06.189Z,0
2016-12-30T02:05:16.555Z,0
2016-12-30T02:06:26.498Z,0
2016-12-30T02:07:36.853Z,0
2016-12-30T02:08:47.204Z,0
2016-12-30T02:09:57.547Z,0
2016-12-30T02:11:08.272Z,0
2016-12-30T02:12:19.006Z,0
2016-12-30T02:13:29.746Z,0
2016-12-30T02:14:40.078Z,0
2016-12-30T02:15:50.426Z,0
2016-12-30T02:17:00.387Z,0
2016-12-30T02:18:11.132Z,0
2016-12-30T02:19:21.869Z,0
2016-12-30T02:20:32.630Z,0
2016-12-30T02:21:43.378Z,0
2016-12-30T02:22:53.724Z,0
2016-12-30T02:24:04.077Z,0
2016-12-30T02:25:14.842Z,0
2016-12-30T02:26:25.579Z,0
2016-12-30T02:27:35.566Z,0
2016-12-30T02:28:45.943Z,0
2016-12-30T02:29:56.285Z,0
2016-12-30T02:31:06.232Z,0
2016-12-30T02:32:16.972Z,0
2016-12-30T02:33:27.315Z,0
2016-12-30T02:34:37.261Z,0
2016-12-30T02:35:48.001Z,0
2016-12-30T02:36:57.941Z,0
2016-12-30T02:38:07.880Z,0
2016-12-30T02:39:18.614Z,0
2016-12-30T02:40:29.369Z,0
2016-12-30T02:41:39.326Z,0
2016-12-30T02:42:49.299Z,0
2016-12-30T02:43:59.629Z,0
2016-12-30T02:45:09.981Z,0
2016-12-30T02:46:20.312Z,0
2016-12-30T02:47:31.043Z,0
2016-12-30T02:48:41.376Z,0
2016-12-30T02:49:51.715Z,0
2016-12-30T02:51:02.050Z,0
2016-12-30T02:52:12.396Z,0
2016-12-30T02:53:23.135Z,0
2016-12-30T02:54:33.853Z,0
2016-12-30T02:55:44.196Z,0
2016-12-30T02:56:54.573Z,0
2016-12-30T02:58:05.294Z,0
2016-12-30T02:59:15.627Z,0
2016-12-30T03:00:25.981Z,0
2016-12-30T03:01:36.350Z,0
2016-12-30T03:33:21.085Z,0
2016-12-30T03:34:31.418Z,0
2016-12-30T03:35:41.354Z,0
2016-12-30T03:36:52.085Z,0
2016-12-30T03:38:02.813Z,0
2016-12-30T03:39:13.154Z,0
2016-12-30T03:40:23.887Z,0
2016-12-30T03:41:34.222Z,0
2016-12-30T03:42:44.171Z,0
2016-12-30T03:43:54.900Z,0
2016-12-30T03:45:05.626Z,0
2016-12-30T03:46:16.368Z,0
2016-12-30T03:47:27.110Z,0
2016-12-30T03:48:37.446Z,0
2016-12-30T03:49:48.183Z,0
2016-12-30T03:50:58.129Z,0
2016-12-30T03:52:08.482Z,0
2016-12-30T03:53:18.423Z,0
2016-12-30T03:54:29.153Z,0
2016-12-30T03:55:39.102Z,0
2016-12-30T03:56:49.839Z,0
2016-12-30T03:57:59.396Z,0
2016-12-30T03:59:09.742Z,0
2016-12-30T04:00:20.081Z,0
2016-12-30T04:01:30.816Z,0
2016-12-30T04:02:41.167Z,0
2016-12-30T04:03:51.896Z,0
2016-12-30T04:05:02.621Z,0
2016-12-30T04:06:13.373Z,0
2016-12-30T04:07:23.712Z,0
2016-12-30T04:08:34.048Z,0
2016-12-30T04:09:44.777Z,0
2016-12-30T04:10:55.124Z,0
2016-12-30T04:12:05.857Z,0
2016-12-30T04:13:16.588Z,0
2016-12-30T04:14:26.930Z,0
2016-12-30T04:15:37.271Z,0
2016-12-30T04:16:47.623Z,0
2016-12-30T04:17:58.588Z,0
2016-12-30T04:19:09.322Z,0
2016-12-30T04:20:20.058Z,0
2016-12-30T04:21:30.790Z,0
2016-12-30T04:22:41.138Z,0
2016-12-30T04:23:51.908Z,0
2016-12-30T04:25:02.641Z,0
2016-12-30T04:26:13.391Z,0
2016-12-30T04:27:24.114Z,0
2016-12-30T04:28:34.476Z,0
2016-12-30T04:29:45.197Z,0
2016-12-30T04:30:55.970Z,0
2016-12-30T04:32:06.712Z,0
2016-12-30T04:33:17.449Z,0
2016-12-30T04:34:27.785Z,0
2016-12-30T04:35:38.512Z,0
2016-12-30T04:36:49.253Z,0
2016-12-30T04:37:59.980Z,0
2016-12-30T04:39:10.716Z,0
2016-12-30T04:40:21.049Z,0
2016-12-30T04:41:31.405Z,0
2016-12-30T04:42:41.756Z,0
2016-12-30T04:43:51.712Z,0
2016-12-30T04:45:02.466Z,0
2016-12-30T04:46:12.801Z,0
2016-12-30T04:47:23.539Z,0
2016-12-30T04:48:34.264Z,0
2016-12-30T04:49:44.602Z,0
2016-12-30T04:50:55.338Z,0
2016-12-30T04:52:06.100Z,0
2016-12-30T04:53:16.853Z,0
2016-12-30T04:54:27.589Z,0
2016-12-30T04:55:38.334Z,0
2016-12-30T04:56:49.077Z,0
2016-12-30T04:57:59.423Z,0
2016-12-30T04:59:09.380Z,0
2016-12-30T05:00:19.724Z,0
2016-12-30T05:01:30.459Z,0
2016-12-30T05:02:41.207Z,0
2016-12-30T05:03:51.169Z,0
2016-12-30T05:05:01.129Z,0
2016-12-30T05:06:11.081Z,0
2016-12-30T05:07:21.427Z,0
2016-12-30T05:08:32.153Z,0
2016-12-30T05:09:42.096Z,0
2016-12-30T05:10:52.848Z,0
2016-12-30T05:12:03.591Z,0
2016-12-30T05:13:14.323Z,0
2016-12-30T05:14:25.058Z,0
2016-12-30T05:15:35.835Z,0
2016-12-30T05:16:45.758Z,0
2016-12-30T05:17:56.501Z,0
2016-12-30T05:19:06.839Z,0
2016-12-30T05:20:17.594Z,0
2016-12-30T05:21:28.334Z,0
2016-12-30T05:22:39.076Z,0
2016-12-30T05:23:49.824Z,0
2016-12-30T05:25:00.560Z,0
2016-12-30T05:26:11.309Z,0
2016-12-30T05:27:21.648Z,0
2016-12-30T05:28:32.375Z,0
2016-12-30T05:29:43.111Z,0
2016-12-30T05:30:53.858Z,0
2016-12-30T05:32:03.803Z,0
2016-12-30T05:33:13.760Z,0
2016-12-30T05:34:24.494Z,0
2016-12-30T05:35:34.439Z,0
2016-12-30T05:36:45.168Z,0
2016-12-30T05:37:55.524Z,0
2016-12-30T05:39:06.250Z,0
2016-12-30T05:40:16.587Z,0
2016-12-30T05:41:27.322Z,0
2016-12-30T05:42:38.073Z,0
2016-12-30T05:43:48.407Z,0
2016-12-30T05:44:59.147Z,0
2016-12-30T05:46:09.495Z,0
2016-12-30T05:47:19.842Z,0
2016-12-30T05:48:30.597Z,0
2016-12-30T05:49:40.950Z,0
2016-12-30T05:50:51.702Z,0
2016-12-30T05:52:02.043Z,0
2016-12-30T05:53:12.762Z,0
2016-12-30T05:54:23.116Z,0
2016-12-30T05:55:33.843Z,0
2016-12-30T05:56:44.581Z,0
2016-12-30T05:57:54.930Z,0
2016-12-30T05:59:05.673Z,0
2016-12-30T06:00:15.620Z,0
2016-12-30T06:01:26.394Z,0
2016-12-30T06:02:36.743Z,0
2016-12-30T06:03:47.473Z,0
2016-12-30T06:04:58.203Z,0
2016-12-30T06:06:08.949Z,4
2016-12-30T06:07:19.320Z,4
2016-12-30T06:08:29.666Z,0
2016-12-30T06:09:40.400Z,0
2016-12-30T06:10:51.145Z,0
2016-12-30T06:12:01.899Z,4
2016-12-30T06:13:11.884Z,0
2016-12-30T06:14:22.230Z,4
2016-12-30T06:15:32.564Z,4
2016-12-30T06:16:42.899Z,4
2016-12-30T06:17:53.242Z,4
2016-12-30T06:19:03.587Z,8
2016-12-30T06:20:13.935Z,8
2016-12-30T06:21:24.697Z,12
2016-12-30T06:22:35.038Z,12
2016-12-30T06:23:45.769Z,12
2016-12-30T06:24:56.501Z,12
2016-12-30T06:26:07.247Z,16
2016-12-30T06:27:17.990Z,24
2016-12-30T06:28:28.352Z,28
2016-12-30T06:29:39.089Z,32
2016-12-30T06:30:49.824Z,36
2016-12-30T06:32:00.191Z,44
2016-12-30T06:33:10.929Z,52
2016-12-30T06:34:21.285Z,60
2016-12-30T06:35:31.629Z,68
2016-12-30T06:36:41.979Z,76
2016-12-30T06:37:52.326Z,88
2016-12-30T06:39:02.673Z,104
2016-12-30T06:40:12.654Z,120
2016-12-30T06:41:23.002Z,132
2016-12-30T06:42:33.737Z,148
2016-12-30T06:43:44.060Z,164
2016-12-30T06:44:54.391Z,184
2016-12-30T06:46:05.112Z,200
2016-12-30T06:47:15.855Z,224
2016-12-30T06:48:26.595Z,244
2016-12-30T06:49:37.342Z,268
2016-12-30T06:50:47.679Z,292
2016-12-30T06:51:57.639Z,320
2016-12-30T06:53:07.970Z,344
2016-12-30T06:54:18.704Z,368
2016-12-30T06:55:29.476Z,400
2016-12-30T06:56:40.202Z,432
2016-12-30T06:57:50.545Z,460
2016-12-30T06:59:00.892Z,496
2016-12-30T07:00:11.238Z,532
2016-12-30T07:01:21.986Z,572
2016-12-30T07:02:32.336Z,612
2016-12-30T07:03:43.104Z,652
2016-12-30T07:04:53.449Z,692
2016-12-30T07:06:04.187Z,728
2016-12-30T07:07:14.931Z,772
2016-12-30T07:08:25.665Z,816
2016-12-30T07:09:36.412Z,856
2016-12-30T07:10:47.149Z,896
2016-12-30T07:11:57.097Z,940
2016-12-30T07:13:07.428Z,980
2016-12-30T07:14:18.150Z,1028
2016-12-30T07:15:28.495Z,1072
2016-12-30T07:16:38.835Z,1116
2016-12-30T07:17:49.200Z,1160
2016-12-30T07:18:59.945Z,1212
2016-12-30T07:20:10.296Z,1260
2016-12-30T07:21:21.034Z,1308
2016-12-30T07:22:31.811Z,1360
2016-12-30T07:23:41.751Z,1412
2016-12-30T07:24:52.099Z,1464
2016-12-30T07:26:02.440Z,1512
2016-12-30T07:27:12.807Z,1560
2016-12-30T07:28:22.764Z,1612
2016-12-30T07:29:33.522Z,1664
2016-12-30T07:30:44.248Z,1720
2016-12-30T07:31:54.210Z,1776
2016-12-30T07:33:04.956Z,1836
2016-12-30T07:34:15.332Z,1888
2016-12-30T07:35:26.075Z,1924
2016-12-30T07:36:36.413Z,1952
2016-12-30T07:37:47.167Z,1992
2016-12-30T07:38:57.912Z,2032
2016-12-30T07:40:08.647Z,2084
2016-12-30T07:41:19.614Z,2132
2016-12-30T07:42:29.560Z,2168
2016-12-30T07:43:40.342Z,2224
2016-12-30T07:44:51.074Z,2276
2016-12-30T07:46:01.420Z,2316
2016-12-30T07:47:12.166Z,2356
2016-12-30T07:48:22.504Z,2396
2016-12-30T07:49:32.841Z,2436
2016-12-30T07:50:43.577Z,2464
2016-12-30T07:51:53.928Z,2496
2016-12-30T07:53:04.277Z,2540
2016-12-30T07:54:14.622Z,2580
2016-12-30T07:55:25.058Z,2612
2016-12-30T07:56:35.007Z,2656
2016-12-30T07:57:45.373Z,2696
2016-12-30T07:58:55.723Z,2728
2016-12-30T08:00:06.470Z,2752
2016-12-30T08:01:16.441Z,2784
2016-12-30T08:02:27.179Z,2820
2016-12-30T08:03:37.531Z,2852
2016-12-30T08:04:47.877Z,2888
2016-12-30T08:05:58.225Z,2912
2016-12-30T08:07:09.005Z,2956
2016-12-30T08:08:19.747Z,2992
2016-12-30T08:09:30.091Z,3024
2016-12-30T08:10:40.436Z,3064
2016-12-30T08:11:51.164Z,3092
2016-12-30T08:13:01.890Z,3120
2016-12-30T08:14:12.658Z,3172
2016-12-30T08:15:22.998Z,3224
2016-12-30T08:16:33.753Z,3260
2016-12-30T08:17:44.500Z,3304
2016-12-30T08:18:54.837Z,3340
2016-12-30T08:20:05.194Z,3380
2016-12-30T08:21:15.928Z,3412
2016-12-30T08:22:26.678Z,3436
2016-12-30T08:23:37.419Z,3476
2016-12-30T08:24:48.177Z,3508
2016-12-30T08:25:58.519Z,3532
2016-12-30T08:27:08.076Z,3572
2016-12-30T08:28:18.432Z,3612
2016-12-30T08:29:29.177Z,3656
2016-12-30T08:30:39.523Z,3688
2016-12-30T08:31:49.481Z,3712
2016-12-30T08:32:59.837Z,3748
2016-12-30T08:34:09.786Z,3780
2016-12-30T08:35:20.541Z,3812
2016-12-30T08:36:31.279Z,3844
2016-12-30T08:37:41.630Z,3876
2016-12-30T08:38:51.583Z,3900
2016-12-30T08:40:01.928Z,3940
2016-12-30T08:41:12.690Z,3964
2016-12-30T08:42:23.032Z,3992
2016-12-30T08:43:33.378Z,4032
2016-12-30T08:44:44.109Z,4080
2016-12-30T08:45:54.846Z,4108
2016-12-30T08:47:05.183Z,4132
2016-12-30T08:48:14.765Z,4164
2016-12-30T08:49:25.156Z,4184
2016-12-30T08:50:35.089Z,4220
2016-12-30T08:51:45.042Z,4256
2016-12-30T08:52:55.777Z,4292
2016-12-30T08:54:06.133Z,4332
2016-12-30T08:55:16.489Z,4364
2016-12-30T08:56:27.227Z,4396
2016-12-30T08:57:37.585Z,4416
2016-12-30T08:58:47.949Z,4436
2016-12-30T08:59:58.696Z,4456
2016-12-30T09:01:09.432Z,4480
2016-12-30T09:02:19.780Z,4492
2016-12-30T09:03:30.139Z,4524
2016-12-30T09:04:40.095Z,4548
2016-12-30T09:05:50.831Z,4568
2016-12-30T09:07:01.581Z,4604
2016-12-30T09:08:11.938Z,4640
2016-12-30T09:09:22.315Z,4676
2016-12-30T09:10:33.051Z,4712
2016-12-30T09:11:42.984Z,4756
2016-12-30T09:12:53.315Z,4772
2016-12-30T09:14:03.262Z,4804
2016-12-30T09:15:13.608Z,4848
2016-12-30T09:16:24.360Z,4888
2016-12-30T09:17:34.717Z,4928
2016-12-30T09:18:45.068Z,4948
2016-12-30T09:19:55.805Z,4972
2016-12-30T09:21:06.157Z,5012
2016-12-30T09:22:16.126Z,5052
2016-12-30T09:23:26.471Z,5084
2016-12-30T09:24:36.827Z,5128
2016-12-30T09:25:47.559Z,5172
2016-12-30T09:26:58.308Z,5216
2016-12-30T09:28:08.268Z,5236
2016-12-30T09:29:18.621Z,5284
2016-12-30T09:30:29.382Z,5300
2016-12-30T09:31:40.129Z,5328
2016-12-30T09:32:50.075Z,5356
2016-12-30T09:34:00.808Z,5388
2016-12-30T09:35:11.542Z,5412
2016-12-30T09:36:22.284Z,5440
2016-12-30T09:37:32.649Z,5452
2016-12-30T09:38:43.403Z,5484
2016-12-30T09:39:54.160Z,5508
2016-12-30T09:41:04.111Z,5568
2016-12-30T09:42:14.855Z,5600
2016-12-30T09:43:25.194Z,5644
2016-12-30T09:44:35.931Z,5692
2016-12-30T09:45:46.283Z,5720
2016-12-30T09:46:57.024Z,5728
2016-12-30T09:48:07.367Z,5784
2016-12-30T09:49:18.112Z,5808
2016-12-30T09:50:28.843Z,5824
2016-12-30T09:51:39.576Z,5844
2016-12-30T09:52:49.538Z,5868
2016-12-30T09:53:59.889Z,5888
2016-12-30T09:55:10.231Z,5904
2016-12-30T09:56:20.968Z,5928
2016-12-30T09:57:31.314Z,5944
2016-12-30T09:58:41.696Z,5960
2016-12-30T09:59:51.641Z,5960
2016-12-30T10:01:01.982Z,5968
2016-12-30T10:02:12.328Z,5992
2016-12-30T10:03:23.068Z,6016
2016-12-30T10:04:33.807Z,6040
2016-12-30T10:05:44.561Z,6048
2016-12-30T10:06:54.908Z,6048
2016-12-30T10:08:05.267Z,6032
2016-12-30T10:09:15.227Z,6068
2016-12-30T10:10:25.968Z,6064
2016-12-30T10:11:36.764Z,6108
2016-12-30T10:12:47.118Z,6144
2016-12-30T10:13:57.479Z,6144
2016-12-30T10:15:07.445Z,6176
2016-12-30T10:16:17.792Z,6144
2016-12-30T10:17:28.539Z,6160
2016-12-30T10:18:38.896Z,6212
2016-12-30T10:19:49.269Z,6208
2016-12-30T10:20:59.227Z,6236
2016-12-30T10:22:09.967Z,6232
2016-12-30T10:23:20.328Z,6244
2016-12-30T10:24:31.066Z,6256
2016-12-30T10:25:41.412Z,6284
2016-12-30T10:26:51.359Z,6316
2016-12-30T10:28:01.702Z,6320
2016-12-30T10:29:12.061Z,6340
2016-12-30T10:30:22.009Z,6324
2016-12-30T10:31:32.356Z,6340
2016-12-30T10:32:43.102Z,6364
2016-12-30T10:33:53.464Z,6380
2016-12-30T10:35:03.842Z,6392
2016-12-30T10:36:14.578Z,6400
2016-12-30T10:37:24.525Z,6404
2016-12-30T10:38:35.272Z,6392
2016-12-30T10:39:45.618Z,6396
2016-12-30T10:40:56.359Z,6424
2016-12-30T10:42:07.110Z,6428
2016-12-30T10:43:17.467Z,6444
2016-12-30T10:44:28.204Z,6444
2016-12-30T10:45:38.950Z,6484
2016-12-30T10:46:48.927Z,6512
2016-12-30T10:47:59.679Z,6536
2016-12-30T10:49:09.235Z,6532
2016-12-30T10:50:19.212Z,6548
2016-12-30T10:51:29.552Z,6576
2016-12-30T10:52:40.306Z,6588
2016-12-30T10:53:51.078Z,6596
2016-12-30T10:55:01.451Z,6616
2016-12-30T10:56:12.227Z,6632
2016-12-30T10:57:23.003Z,6668
2016-12-30T10:58:33.380Z,6676
2016-12-30T10:59:44.132Z,6708
2016-12-30T11:00:54.887Z,6708
2016-12-30T11:02:05.242Z,6732
2016-12-30T11:03:15.192Z,6764
2016-12-30T11:04:25.543Z,6784
2016-12-30T11:05:36.290Z,6800
2016-12-30T11:06:46.677Z,6836
2016-12-30T11:07:56.612Z,6844
2016-12-30T11:09:06.560Z,6868
2016-12-30T11:10:16.933Z,6900
2016-12-30T11:11:27.687Z,6936
2016-12-30T11:12:38.420Z,6956
2016-12-30T11:13:49.161Z,6976
2016-12-30T11:14:59.494Z,7000
2016-12-30T11:16:09.840Z,7032
2016-12-30T11:17:19.777Z,7048
2016-12-30T11:18:30.135Z,7076
2016-12-30T11:19:40.089Z,7084
2016-12-30T11:20:50.462Z,7096
2016-12-30T11:22:01.223Z,7108
2016-12-30T11:23:11.984Z,7136
2016-12-30T11:24:21.536Z,7160
2016-12-30T11:25:32.288Z,7180
2016-12-30T11:26:42.659Z,7188
2016-12-30T11:27:52.615Z,7160
2016-12-30T11:29:03.353Z,7140
2016-12-30T11:30:14.100Z,7108
2016-12-30T11:31:24.092Z,7096
2016-12-30T11:32:34.457Z,7088
2016-12-30T11:33:45.203Z,7056
2016-12-30T11:41:16.566Z,7068
2016-12-30T11:42:27.328Z,7096
2016-12-30T11:43:38.075Z,7052
2016-12-30T11:44:48.026Z,7080
2016-12-30T11:45:58.374Z,7052
2016-12-30T11:47:09.123Z,7064
2016-12-30T11:48:19.880Z,7052
2016-12-30T11:49:30.227Z,7020
2016-12-30T11:50:40.193Z,7036
2016-12-30T11:51:50.579Z,7044
2016-12-30T11:53:01.572Z,6976
2016-12-30T11:54:11.558Z,6980
2016-12-30T11:55:21.924Z,7016
2016-12-30T11:56:32.662Z,7076
2016-12-30T11:57:43.009Z,7048
2016-12-30T11:58:53.349Z,7048
2016-12-30T12:00:02.921Z,6964
2016-12-30T12:01:13.267Z,7008
2016-12-30T12:02:23.632Z,6988
2016-12-30T12:03:34.386Z,6884
2016-12-30T12:04:44.743Z,6864
2016-12-30T12:05:55.476Z,6964
2016-12-30T12:07:05.865Z,6916
2016-12-30T12:08:16.643Z,6916
2016-12-30T12:09:26.998Z,6956
2016-12-30T12:10:37.368Z,6960
2016-12-30T12:11:47.724Z,6948
2016-12-30T12:12:58.124Z,6956
2016-12-30T12:14:08.486Z,7040
2016-12-30T12:15:18.842Z,7036
2016-12-30T12:16:29.219Z,7084
2016-12-30T12:17:39.972Z,7072
2016-12-30T12:18:50.303Z,7108
2016-12-30T12:20:01.076Z,7144
2016-12-30T12:21:11.831Z,7248
2016-12-30T12:22:22.188Z,7288
2016-12-30T12:23:32.571Z,10256
2016-12-30T12:24:43.327Z,15168
2016-12-30T12:25:54.088Z,16736
2016-12-30T12:27:04.825Z,16672
2016-12-30T12:28:14.798Z,15328
2016-12-30T12:29:24.759Z,16128
2016-12-30T12:30:35.111Z,15840
2016-12-30T12:31:44.678Z,17152
2016-12-30T12:32:54.647Z,14584
2016-12-30T12:34:04.602Z,8712
2016-12-30T12:35:15.353Z,7476
2016-12-30T12:36:25.725Z,7488
2016-12-30T12:37:36.495Z,7460
2016-12-30T12:38:46.057Z,7944
2016-12-30T12:39:56.804Z,10196
2016-12-30T12:41:07.171Z,10132
2016-12-30T12:42:17.145Z,9108
2016-12-30T12:43:27.533Z,7992
2016-12-30T12:44:37.490Z,7476
2016-12-30T12:45:48.242Z,7300
2016-12-30T12:46:59.016Z,7252
2016-12-30T12:48:09.802Z,7192
2016-12-30T12:49:20.577Z,7196
2016-12-30T12:50:31.326Z,7160
2016-12-30T12:51:41.695Z,7096
2016-12-30T12:52:52.067Z,7116
2016-12-30T12:54:02.433Z,7136
2016-12-30T12:55:13.176Z,7064
2016-12-30T12:56:23.566Z,7012
2016-12-30T12:57:33.928Z,6920
2016-12-30T12:58:43.900Z,6832
2016-12-30T12:59:54.673Z,6772
2016-12-30T13:01:04.664Z,6664
2016-12-30T13:02:14.631Z,6584
2016-12-30T13:03:24.988Z,6476
2016-12-30T13:04:35.334Z,6360
2016-12-30T13:05:45.733Z,6272
2016-12-30T13:06:56.482Z,6172
2016-12-30T13:08:07.273Z,6072
2016-12-30T13:09:17.621Z,6012
2016-12-30T13:10:28.400Z,5924
2016-12-30T13:11:38.795Z,5820
2016-12-30T13:12:49.160Z,5740
2016-12-30T13:13:59.117Z,5664
2016-12-30T13:15:09.854Z,5600
2016-12-30T13:16:19.430Z,5540
2016-12-30T13:17:28.598Z,5464
2016-12-30T13:18:38.949Z,5396
2016-12-30T13:19:49.687Z,5340
2016-12-30T13:21:00.039Z,5264
2016-12-30T13:22:10.804Z,5204
2016-12-30T13:23:21.551Z,5152
2016-12-30T13:24:31.509Z,5092
2016-12-30T13:25:41.465Z,5028
2016-12-30T13:26:51.815Z,4976
2016-12-30T13:28:02.203Z,4944
2016-12-30T13:29:12.820Z,4896
2016-12-30T13:30:22.798Z,4828
2016-12-30T13:31:33.533Z,4780
2016-12-30T13:32:44.280Z,4724
2016-12-30T13:33:54.632Z,4696
2016-12-30T13:35:05.412Z,4648
2016-12-30T13:36:16.168Z,4584
2016-12-30T13:37:26.135Z,4548
2016-12-30T13:38:36.899Z,4476
2016-12-30T13:39:47.244Z,4428
2016-12-30T13:40:57.600Z,4380
2016-12-30T13:42:07.938Z,4316
2016-12-30T13:43:17.913Z,4260
2016-12-30T13:44:28.696Z,4200
2016-12-30T13:45:38.648Z,4148
2016-12-30T13:46:49.398Z,4076
2016-12-30T13:48:00.163Z,4028
2016-12-30T13:49:10.139Z,3964
2016-12-30T13:50:20.484Z,3892
2016-12-30T13:51:30.828Z,3848
2016-12-30T13:52:41.595Z,3764
2016-12-30T13:53:51.950Z,3700
2016-12-30T13:55:02.295Z,3628
2016-12-30T13:56:12.659Z,3560
2016-12-30T13:57:23.425Z,3472
2016-12-30T13:58:33.781Z,3404
2016-12-30T13:59:44.137Z,3332
2016-12-30T14:00:54.919Z,3248
2016-12-30T14:02:05.713Z,3180
2016-12-30T14:03:16.467Z,3108
2016-12-30T14:04:27.238Z,3036
2016-12-30T14:05:38.214Z,2952
2016-12-30T14:06:48.965Z,2876
2016-12-30T14:07:59.355Z,2796
2016-12-30T14:09:09.331Z,2712
2016-12-30T14:10:19.302Z,2620
2016-12-30T14:11:30.060Z,2536
2016-12-30T14:12:40.407Z,2440
2016-12-30T14:13:49.998Z,2356
2016-12-30T14:15:00.373Z,2264
2016-12-30T14:16:10.742Z,2188
2016-12-30T14:17:21.502Z,2100
2016-12-30T14:18:32.246Z,2024
2016-12-30T14:19:42.598Z,1928
2016-12-30T14:20:52.569Z,1836
2016-12-30T14:22:02.930Z,1736
2016-12-30T14:23:13.672Z,1632
2016-12-30T14:24:24.426Z,1528
2016-12-30T14:25:34.790Z,1436
2016-12-30T14:26:45.153Z,1356
2016-12-30T14:27:56.153Z,1276
2016-12-30T14:29:06.901Z,1204
2016-12-30T14:30:16.863Z,1148
2016-12-30T14:31:27.240Z,1092
2016-12-30T14:32:37.602Z,1044
2016-12-30T14:33:47.942Z,996
2016-12-30T14:34:58.669Z,952
2016-12-30T14:36:09.401Z,912
2016-12-30T14:37:20.145Z,876
2016-12-30T14:38:30.910Z,836
2016-12-30T14:39:41.265Z,800
2016-12-30T14:40:52.013Z,768
2016-12-30T14:42:02.754Z,740
2016-12-30T14:43:12.326Z,716
2016-12-30T14:44:22.674Z,692
2016-12-30T14:45:33.410Z,664
2016-12-30T14:46:43.388Z,640
2016-12-30T14:47:54.172Z,612
2016-12-30T14:49:04.930Z,588
2016-12-30T14:50:15.296Z,564
2016-12-30T14:51:25.243Z,536
2016-12-30T14:52:35.999Z,508
2016-12-30T14:53:46.742Z,484
2016-12-30T14:54:57.093Z,456
2016-12-30T14:56:07.465Z,432
2016-12-30T14:57:18.188Z,408
2016-12-30T14:58:28.933Z,384
2016-12-30T14:59:39.700Z,360
2016-12-30T15:00:50.437Z,332
2016-12-30T15:02:01.181Z,312
2016-12-30T15:03:11.530Z,288
2016-12-30T15:04:22.268Z,264
2016-12-30T15:05:32.631Z,240
2016-12-30T15:06:42.982Z,220
2016-12-30T15:07:52.936Z,200
2016-12-30T15:09:03.295Z,184
2016-12-30T15:10:13.649Z,164
2016-12-30T15:11:24.013Z,148
2016-12-30T15:12:34.795Z,132
2016-12-30T15:13:45.537Z,120
2016-12-30T15:14:55.901Z,104
2016-12-30T15:16:06.260Z,92
2016-12-30T15:17:16.227Z,80
2016-12-30T15:18:26.596Z,72
2016-12-30T15:19:37.360Z,64
2016-12-30T15:20:46.925Z,52
2016-12-30T15:21:57.679Z,48
2016-12-30T15:23:08.413Z,40
2016-12-30T15:24:18.764Z,32
2016-12-30T15:25:29.506Z,28
2016-12-30T15:26:40.257Z,24
2016-12-30T15:27:51.013Z,20
2016-12-30T15:29:01.360Z,16
2016-12-30T15:30:12.109Z,12
2016-12-30T15:31:22.483Z,12
2016-12-30T15:32:32.860Z,8
2016-12-30T15:33:43.603Z,8
2016-12-30T15:34:53.959Z,4
2016-12-30T15:36:04.734Z,4
2016-12-30T15:37:15.469Z,4
2016-12-30T15:38:26.226Z,4
2016-12-30T15:39:36.591Z,4
2016-12-30T15:40:46.958Z,4
2016-12-30T15:41:57.329Z,4
2016-12-30T15:43:08.087Z,0
2016-12-30T15:44:17.677Z,0
2016-12-30T15:45:28.048Z,0
2016-12-30T15:46:38.804Z,4
2016-12-30T15:47:48.753Z,4
2016-12-30T15:48:59.125Z,4
2016-12-30T15:50:09.874Z,0
2016-12-30T15:51:20.628Z,0
2016-12-30T15:52:30.979Z,0
2016-12-30T15:53:41.727Z,0
2016-12-30T15:54:52.089Z,0
2016-12-30T15:56:02.456Z,0
2016-12-30T15:57:12.422Z,0
2016-12-30T15:58:22.394Z,0
2016-12-30T15:59:32.751Z,0
2016-12-30T16:00:42.739Z,0
2016-12-30T16:01:53.504Z,0
2016-12-30T16:03:04.314Z,0
2016-12-30T16:04:15.095Z,0
2016-12-30T16:05:25.459Z,0
2016-12-30T16:06:36.207Z,0
2016-12-30T16:07:46.554Z,0
2016-12-30T16:08:56.902Z,0
2016-12-30T16:10:07.652Z,0
2016-12-30T16:11:18.385Z,0
2016-12-30T16:12:28.731Z,0
2016-12-30T16:13:39.078Z,0
2016-12-30T16:14:49.833Z,0
2016-12-30T16:16:00.201Z,0
2016-12-30T16:17:10.963Z,0
2016-12-30T16:18:21.724Z,0
2016-12-30T16:19:32.520Z,0
2016-12-30T16:20:43.288Z,0
2016-12-30T16:21:53.668Z,0
2016-12-30T16:23:03.631Z,0
2016-12-30T16:24:14.015Z,0
2016-12-30T16:25:24.755Z,0
2016-12-30T16:26:35.519Z,0
2016-12-30T16:27:46.275Z,0
2016-12-30T16:28:56.639Z,0
2016-12-30T16:30:07.003Z,0
2016-12-30T16:31:17.797Z,0
2016-12-30T16:32:28.548Z,0
2016-12-30T16:33:38.508Z,0
2016-12-30T16:34:48.882Z,0
2016-12-30T16:35:58.447Z,0
2016-12-30T16:37:09.231Z,0
2016-12-30T16:38:19.584Z,0
2016-12-30T16:39:30.365Z,0
2016-12-30T16:40:41.139Z,0
2016-12-30T16:41:51.896Z,0
2016-12-30T16:43:02.641Z,0
2016-12-30T16:44:12.994Z,0
2016-12-30T16:45:23.760Z,0
2016-12-30T16:46:33.321Z,0
2016-12-30T16:47:43.269Z,0
2016-12-30T16:48:53.624Z,0
2016-12-30T16:50:04.391Z,0
2016-12-30T16:51:14.354Z,0
2016-12-30T16:52:25.090Z,0
2016-12-30T16:53:35.816Z,0
2016-12-30T16:54:45.769Z,0
2016-12-30T16:55:56.525Z,0
2016-12-30T16:57:07.277Z,0
2016-12-30T16:58:17.619Z,0
2016-12-30T16:59:28.405Z,0
2016-12-30T17:00:38.358Z,0
2016-12-30T17:01:49.117Z,0
2016-12-30T17:02:59.864Z,0